createdAt,value
2022-09-28T06:22:10.119Z,57.90
2022-09-28T06:37:29.067Z,58.90
2022-09-28T06:52:35.433Z,56.20
2022-09-28T07:07:51.063Z,55.10
2022-09-28T07:23:19.346Z,54.50
2022-09-28T07:38:44.000Z,53.80
2022-09-28T07:53:49.100Z,53.40
2022-09-28T08:09:12.362Z,53.00
2022-09-28T08:24:55.412Z,52.50
2022-09-28T08:40:00.048Z,52.40
2022-09-28T08:55:33.686Z,52.30
2022-09-28T09:10:50.590Z,52.30
2022-09-28T09:26:04.728Z,52.00
2022-09-28T09:41:20.107Z,52.30
2022-09-28T09:56:49.022Z,52.30
2022-09-28T10:12:21.271Z,52.40
2022-09-28T10:27:30.688Z,52.10
2022-09-28T10:42:36.186Z,51.80
2022-09-28T10:57:42.531Z,51.50
2022-09-28T11:12:50.571Z,51.70
2022-09-28T11:28:01.376Z,51.80
2022-09-28T11:43:16.943Z,52.00
2022-09-28T11:58:29.086Z,52.20
2022-09-28T12:13:39.894Z,52.20
2022-09-28T12:28:49.808Z,52.20
2022-09-28T12:44:13.170Z,52.20
2022-09-28T12:59:26.632Z,53.30
2022-09-28T13:15:08.715Z,52.20
2022-09-28T13:30:17.195Z,51.90
2022-09-28T13:45:51.537Z,51.70
2022-09-28T14:01:03.167Z,51.60
2022-09-28T14:16:24.718Z,51.40
2022-09-28T14:31:30.407Z,51.30
2022-09-28T14:46:37.939Z,51.20
2022-09-28T15:01:52.006Z,51.50
2022-09-28T15:16:58.332Z,51.40
2022-09-28T15:32:04.054Z,50.50
2022-09-28T15:47:15.061Z,50.50
2022-09-28T16:02:22.582Z,49.80
2022-09-28T16:17:32.378Z,49.50
2022-09-28T16:32:41.769Z,48.70
2022-09-28T16:47:47.364Z,48.20
2022-09-28T17:02:52.668Z,48.10
2022-09-28T17:17:57.240Z,49.10
2022-09-28T17:33:01.750Z,49.70
2022-09-28T17:48:06.360Z,50.20
2022-09-28T18:03:14.775Z,50.40
2022-09-28T18:18:19.348Z,50.80
